Bloomville, Wisconsin
Current Conditions -  °F | °C
As of 4:55 PM on Thursday 27 Nov 2014 (Local Time) from KRRL Reporting Station
Clear Clear  
Wind Chill: 10°   Ceiling: Unl
Heat Index: 10°   Visibility: 10mi
Dew Point:   Wind: 0mph
Humidity: 65%   Direction: NA
Pressure: 30.33"   Gusts: NA
Location:  45.3595°N, 89.45°W
Report Text: KRRL 272255Z AUTO 00000KT 10SM CLR M12/M18 A3033 RMK AO2 T11251178
Loading
Personal Weather Stations






























Interactive Weather Map New forecast layout! Learn more

10-Day Weather Forecast

Advertisements
Track Severe Weather on mobile